createdAt,value
2022-08-26T00:01:54.695Z,20.58
2022-08-26T00:04:23.902Z,20.47
2022-08-26T00:06:51.733Z,20.66
2022-08-26T00:09:18.735Z,20.75
2022-08-26T00:11:46.233Z,20.49
2022-08-26T00:14:14.765Z,20.39
2022-08-26T00:16:47.658Z,20.78
2022-08-26T00:19:16.314Z,20.53
2022-08-26T00:21:43.924Z,20.33
2022-08-26T00:24:10.835Z,20.05
2022-08-26T00:26:37.751Z,20.08
2022-08-26T00:29:05.153Z,20.05
2022-08-26T00:31:32.142Z,19.92
2022-08-26T00:33:59.615Z,20.22
2022-08-26T00:36:29.832Z,20.50
2022-08-26T00:38:58.806Z,20.60
2022-08-26T00:41:26.251Z,20.73
2022-08-26T00:43:54.009Z,20.67
2022-08-26T00:46:29.349Z,20.67
2022-08-26T00:49:11.927Z,20.67
2022-08-26T00:51:44.829Z,20.14
2022-08-26T00:54:13.285Z,19.85
2022-08-26T00:56:55.573Z,19.70
2022-08-26T00:59:23.890Z,19.64
2022-08-26T01:01:51.842Z,19.54
2022-08-26T01:04:22.672Z,19.46
2022-08-26T01:06:52.998Z,19.73
2022-08-26T01:09:21.435Z,20.17
2022-08-26T01:11:51.203Z,20.36
2022-08-26T01:14:20.872Z,20.32
2022-08-26T01:16:48.775Z,19.84
2022-08-26T01:19:51.517Z,19.53
2022-08-26T01:22:53.442Z,19.41
2022-08-26T01:25:21.878Z,19.26
2022-08-26T01:27:50.596Z,19.31
2022-08-26T01:30:18.049Z,19.44
2022-08-26T01:32:45.924Z,20.02
2022-08-26T01:35:13.108Z,20.09
2022-08-26T01:37:41.193Z,20.22
2022-08-26T01:40:16.938Z,20.26
2022-08-26T01:42:44.717Z,19.87
2022-08-26T01:45:34.911Z,19.42
2022-08-26T01:48:07.857Z,19.64
2022-08-26T01:50:36.504Z,19.96
2022-08-26T01:53:09.610Z,19.92
2022-08-26T01:55:39.407Z,19.87
2022-08-26T01:58:13.992Z,19.92
2022-08-26T02:00:40.847Z,19.91
2022-08-26T02:03:17.600Z,19.91
2022-08-26T02:05:53.472Z,19.91
2022-08-26T02:08:28.438Z,19.89
2022-08-26T02:10:56.152Z,19.91
2022-08-26T02:13:26.896Z,19.84
2022-08-26T02:15:55.558Z,19.85
2022-08-26T02:18:23.340Z,19.55
2022-08-26T02:20:54.081Z,19.28
2022-08-26T02:23:21.074Z,19.31
2022-08-26T02:25:58.098Z,19.05
2022-08-26T02:28:28.391Z,19.20
2022-08-26T02:30:55.789Z,19.00
2022-08-26T02:33:22.855Z,18.97
2022-08-26T02:35:49.870Z,19.11
2022-08-26T02:38:17.641Z,19.16
2022-08-26T02:40:44.749Z,19.27
2022-08-26T02:43:12.737Z,19.27
2022-08-26T02:45:40.741Z,19.27
2022-08-26T02:48:20.129Z,19.34
2022-08-26T02:50:48.742Z,19.27
2022-08-26T02:53:16.746Z,19.21
2022-08-26T02:55:51.555Z,19.19
2022-08-26T02:58:18.632Z,19.23
2022-08-26T03:00:52.795Z,19.24
2022-08-26T03:03:23.462Z,19.26
2022-08-26T03:05:51.550Z,19.27
2022-08-26T03:08:18.907Z,19.34
2022-08-26T03:10:48.060Z,19.30
2022-08-26T03:13:16.401Z,19.29
2022-08-26T03:15:44.330Z,19.33
2022-08-26T03:18:13.434Z,19.30
2022-08-26T03:20:40.336Z,19.38
2022-08-26T03:23:08.153Z,19.32
2022-08-26T03:25:36.172Z,19.34
2022-08-26T03:28:03.678Z,19.32
2022-08-26T03:30:45.445Z,19.46
2022-08-26T03:33:14.283Z,19.35
2022-08-26T03:35:43.642Z,19.29
2022-08-26T03:38:11.230Z,19.28
2022-08-26T03:40:38.884Z,19.33
2022-08-26T03:43:09.666Z,19.30
2022-08-26T03:45:37.301Z,19.29
2022-08-26T03:48:04.972Z,19.27
2022-08-26T03:50:34.100Z,19.21
2022-08-26T03:53:01.905Z,19.23
2022-08-26T03:55:34.253Z,19.22
2022-08-26T03:58:02.207Z,19.20
2022-08-26T04:00:30.072Z,19.26
2022-08-26T04:02:57.452Z,19.21
2022-08-26T04:05:26.070Z,19.23
2022-08-26T04:07:55.366Z,19.17
2022-08-26T04:10:28.995Z,19.17
2022-08-26T04:12:56.299Z,19.20
2022-08-26T04:15:27.327Z,19.19
2022-08-26T04:17:56.078Z,19.22
2022-08-26T04:20:24.668Z,19.25
2022-08-26T04:22:52.387Z,19.23
2022-08-26T04:25:20.468Z,19.23
2022-08-26T04:27:48.305Z,19.20
2022-08-26T04:30:15.980Z,19.20
2022-08-26T04:32:44.381Z,19.17
2022-08-26T04:35:11.719Z,19.16
2022-08-26T04:37:39.051Z,19.19
2022-08-26T04:40:11.074Z,19.23
2022-08-26T04:42:38.104Z,19.21
2022-08-26T04:45:10.240Z,19.14
2022-08-26T04:47:37.809Z,19.16
2022-08-26T04:50:06.260Z,19.19
2022-08-26T04:52:35.763Z,19.22
2022-08-26T04:55:02.678Z,19.17
2022-08-26T04:57:29.610Z,19.18
2022-08-26T04:59:56.620Z,19.14
2022-08-26T05:02:24.368Z,19.19
2022-08-26T05:04:52.571Z,19.20
2022-08-26T05:07:19.522Z,19.18
2022-08-26T05:09:46.704Z,19.17
2022-08-26T05:12:13.581Z,19.22
2022-08-26T05:14:41.587Z,19.24
2022-08-26T05:17:08.784Z,19.27
2022-08-26T05:19:37.306Z,19.31
2022-08-26T05:22:09.683Z,19.33
2022-08-26T05:24:36.667Z,19.39
2022-08-26T05:27:11.505Z,19.34
2022-08-26T05:29:39.210Z,19.40
2022-08-26T05:32:06.695Z,19.50
2022-08-26T05:34:33.513Z,19.46
2022-08-26T05:37:00.451Z,19.47
2022-08-26T05:39:27.409Z,19.51
2022-08-26T05:41:54.281Z,19.58
2022-08-26T05:44:21.254Z,19.62
2022-08-26T05:46:49.735Z,19.64
2022-08-26T05:49:18.833Z,19.62
2022-08-26T05:51:47.726Z,19.76
2022-08-26T05:54:21.924Z,19.75
2022-08-26T05:56:50.868Z,19.81
2022-08-26T05:59:21.234Z,19.90
2022-08-26T06:01:52.251Z,20.01
2022-08-26T06:04:20.205Z,19.98
2022-08-26T06:06:47.538Z,20.02
2022-08-26T06:10:01.614Z,20.12
2022-08-26T06:12:38.318Z,20.00
2022-08-26T06:15:05.839Z,19.97
2022-08-26T06:17:32.859Z,20.13
2022-08-26T06:19:59.819Z,20.09
2022-08-26T06:22:46.787Z,20.12
2022-08-26T06:25:32.354Z,20.20
2022-08-26T06:27:59.334Z,20.26
2022-08-26T06:30:26.465Z,20.28
2022-08-26T06:32:53.806Z,20.37
2022-08-26T06:35:21.765Z,20.52
2022-08-26T06:37:48.655Z,20.63
2022-08-26T06:40:15.613Z,20.63
2022-08-26T06:42:42.576Z,20.58
2022-08-26T06:45:10.977Z,20.58
2022-08-26T06:47:38.283Z,20.61
2022-08-26T06:50:05.527Z,20.81
2022-08-26T06:52:32.545Z,20.92
2022-08-26T06:54:59.667Z,20.85
2022-08-26T06:57:26.763Z,20.88
2022-08-26T06:59:53.878Z,21.22
2022-08-26T07:02:20.926Z,21.29
2022-08-26T07:04:48.105Z,21.43
2022-08-26T07:07:18.374Z,21.31
2022-08-26T07:09:48.987Z,21.35
2022-08-26T07:12:19.870Z,21.29
2022-08-26T07:14:47.391Z,21.62
2022-08-26T07:17:16.008Z,21.62
2022-08-26T07:19:43.648Z,21.59
2022-08-26T07:22:11.154Z,21.86
2022-08-26T07:24:42.382Z,21.97
2022-08-26T07:27:13.462Z,21.65
2022-08-26T07:29:40.949Z,21.80
2022-08-26T07:32:10.093Z,21.70
2022-08-26T07:34:38.713Z,21.78
2022-08-26T07:37:06.025Z,22.13
2022-08-26T07:39:35.959Z,22.35
2022-08-26T07:42:07.825Z,23.04
2022-08-26T07:44:38.433Z,23.09
2022-08-26T07:47:10.101Z,22.87
2022-08-26T07:49:38.428Z,22.79
2022-08-26T07:52:06.120Z,22.50
2022-08-26T07:54:33.259Z,22.40
2022-08-26T07:57:00.164Z,22.69
2022-08-26T07:59:27.194Z,22.54
2022-08-26T08:01:54.098Z,22.55
2022-08-26T08:04:26.199Z,22.76
2022-08-26T08:06:54.102Z,22.85
2022-08-26T08:09:22.409Z,22.87
2022-08-26T08:11:50.055Z,22.78
2022-08-26T08:14:22.195Z,22.94
2022-08-26T08:16:51.113Z,23.45
2022-08-26T08:19:22.046Z,24.09
2022-08-26T08:21:49.180Z,24.63
2022-08-26T08:24:16.139Z,24.94
2022-08-26T08:26:43.252Z,25.26
2022-08-26T08:29:10.209Z,24.68
2022-08-26T08:31:56.534Z,26.07
2022-08-26T08:34:26.564Z,26.19
2022-08-26T08:36:54.255Z,26.01
2022-08-26T08:39:22.453Z,26.88
2022-08-26T08:42:06.138Z,27.10
2022-08-26T08:44:33.992Z,26.47
2022-08-26T08:47:20.088Z,25.74
2022-08-26T08:49:47.747Z,26.16
2022-08-26T08:52:36.259Z,25.92
2022-08-26T08:55:10.993Z,26.44
2022-08-26T08:57:42.455Z,26.35
2022-08-26T09:00:18.219Z,26.56
2022-08-26T09:03:01.868Z,26.91
2022-08-26T09:05:40.486Z,26.97
2022-08-26T09:08:22.910Z,26.57
2022-08-26T09:10:54.584Z,26.90
2022-08-26T09:13:25.212Z,27.00
2022-08-26T09:16:10.037Z,27.47
2022-08-26T09:18:55.600Z,27.14
2022-08-26T09:21:25.150Z,27.40
2022-08-26T09:23:56.637Z,27.66
2022-08-26T09:26:47.522Z,28.41
2022-08-26T09:29:23.071Z,29.00
2022-08-26T09:31:52.330Z,27.61
2022-08-26T09:34:27.788Z,27.65
2022-08-26T09:36:57.330Z,27.29
2022-08-26T09:39:24.144Z,27.81
2022-08-26T09:42:19.321Z,28.93
2022-08-26T09:44:57.667Z,28.02
2022-08-26T09:47:31.562Z,27.74
2022-08-26T09:50:19.844Z,27.85
2022-08-26T09:52:47.639Z,28.76
2022-08-26T09:55:22.990Z,28.40
2022-08-26T09:57:55.337Z,28.08
2022-08-26T10:00:25.713Z,27.67
2022-08-26T10:02:56.049Z,28.26
2022-08-26T10:05:40.733Z,28.32
2022-08-26T10:08:28.799Z,28.57
2022-08-26T10:10:59.100Z,27.76
2022-08-26T10:13:33.537Z,28.32
2022-08-26T10:16:10.851Z,28.45
2022-08-26T10:18:45.505Z,28.32
2022-08-26T10:21:25.025Z,29.15
2022-08-26T10:23:56.512Z,28.15
2022-08-26T10:26:47.085Z,28.38
2022-08-26T10:29:21.336Z,28.25
2022-08-26T10:31:55.400Z,28.67
2022-08-26T10:34:29.508Z,28.03
2022-08-26T10:37:16.244Z,28.15
2022-08-26T10:40:02.464Z,27.98
2022-08-26T10:42:37.578Z,28.65
2022-08-26T10:45:11.670Z,29.57
2022-08-26T10:47:54.478Z,28.78
2022-08-26T10:50:26.173Z,28.95
2022-08-26T10:52:58.412Z,28.57
2022-08-26T10:55:57.621Z,29.70
2022-08-26T10:59:10.373Z,30.52
2022-08-26T11:02:09.638Z,29.01
2022-08-26T11:04:48.162Z,29.39
2022-08-26T11:07:36.991Z,29.43
2022-08-26T11:10:19.207Z,29.34
2022-08-26T11:12:49.579Z,29.65
2022-08-26T11:15:26.889Z,30.24
2022-08-26T11:17:57.212Z,29.41
2022-08-26T11:20:30.124Z,29.32
2022-08-26T11:23:22.683Z,29.76
2022-08-26T11:25:56.965Z,29.75
2022-08-26T11:28:35.644Z,29.44
2022-08-26T11:31:04.618Z,29.09
2022-08-26T11:33:44.232Z,29.32
2022-08-26T11:36:28.135Z,29.53
2022-08-26T11:38:55.034Z,29.17
2022-08-26T11:41:26.368Z,29.04
2022-08-26T11:43:53.435Z,29.21
2022-08-26T11:46:27.564Z,29.33
2022-08-26T11:49:06.796Z,29.19
2022-08-26T11:51:40.477Z,28.68
2022-08-26T11:54:14.553Z,28.83
2022-08-26T11:56:45.590Z,28.41
2022-08-26T11:59:18.184Z,29.38
2022-08-26T12:01:50.568Z,29.58
2022-08-26T12:04:37.975Z,30.57
2022-08-26T12:07:08.831Z,29.34
2022-08-26T12:09:40.434Z,28.83
2022-08-26T12:12:16.768Z,28.77
2022-08-26T12:14:44.879Z,29.16
2022-08-26T12:17:22.481Z,29.11
2022-08-26T12:19:49.747Z,28.76
2022-08-26T12:22:23.102Z,28.94
2022-08-26T12:24:54.396Z,29.30
2022-08-26T12:27:23.999Z,29.15
2022-08-26T12:30:01.301Z,28.52
2022-08-26T12:32:29.172Z,28.56
2022-08-26T12:34:56.627Z,28.44
2022-08-26T12:37:24.811Z,27.98
2022-08-26T12:39:51.791Z,28.94
2022-08-26T12:42:41.443Z,29.02
2022-08-26T12:45:09.145Z,28.39
2022-08-26T12:47:44.323Z,29.01
2022-08-26T12:50:20.346Z,28.11
2022-08-26T12:52:59.370Z,28.83
2022-08-26T12:55:37.482Z,28.23
2022-08-26T12:58:16.821Z,28.15
2022-08-26T13:00:46.299Z,28.38
2022-08-26T13:03:46.391Z,27.92
2022-08-26T13:06:22.499Z,28.21
2022-08-26T13:09:18.980Z,28.18
2022-08-26T13:11:45.927Z,28.75
2022-08-26T13:14:22.250Z,28.26
2022-08-26T13:16:52.622Z,28.10
2022-08-26T13:19:22.545Z,28.33
2022-08-26T13:21:55.543Z,28.14
2022-08-26T13:24:22.546Z,28.02
2022-08-26T13:26:50.393Z,27.78
2022-08-26T13:29:18.386Z,27.60
2022-08-26T13:31:46.546Z,27.84
2022-08-26T13:34:19.083Z,27.54
2022-08-26T13:36:50.564Z,27.63
2022-08-26T13:39:18.476Z,27.61
2022-08-26T13:41:45.596Z,27.11
2022-08-26T13:44:12.654Z,27.38
2022-08-26T13:46:40.086Z,28.47
2022-08-26T13:49:07.418Z,27.99
2022-08-26T13:51:34.358Z,27.72
2022-08-26T13:54:01.256Z,27.53
2022-08-26T13:56:32.460Z,27.28
2022-08-26T13:59:01.208Z,27.01
2022-08-26T14:01:29.866Z,27.37
2022-08-26T14:03:57.333Z,28.22
2022-08-26T14:06:25.422Z,27.79
2022-08-26T14:08:52.370Z,27.52
2022-08-26T14:11:19.906Z,27.29
2022-08-26T14:13:46.857Z,27.59
2022-08-26T14:16:26.343Z,27.18
2022-08-26T14:18:54.235Z,27.23
2022-08-26T14:21:21.664Z,27.24
2022-08-26T14:23:48.906Z,28.05
2022-08-26T14:26:28.352Z,27.61
2022-08-26T14:28:59.129Z,27.28
2022-08-26T14:31:30.789Z,27.57
2022-08-26T14:34:01.750Z,27.63
2022-08-26T14:36:28.818Z,27.37
2022-08-26T14:38:58.369Z,27.82
2022-08-26T14:41:26.079Z,27.20
2022-08-26T14:44:00.200Z,27.77
2022-08-26T14:46:34.138Z,26.88
2022-08-26T14:49:06.165Z,26.66
2022-08-26T14:51:34.650Z,26.99
2022-08-26T14:54:13.705Z,27.08
2022-08-26T14:56:46.863Z,27.56
2022-08-26T14:59:16.104Z,27.14
2022-08-26T15:01:43.981Z,27.02
2022-08-26T15:04:11.253Z,26.96
2022-08-26T15:06:38.687Z,26.84
2022-08-26T15:09:06.535Z,26.89
2022-08-26T15:11:33.894Z,26.66
2022-08-26T15:14:01.125Z,26.50
2022-08-26T15:16:29.409Z,26.77
2022-08-26T15:18:56.838Z,26.56
2022-08-26T15:21:24.314Z,26.42
2022-08-26T15:23:52.940Z,26.69
2022-08-26T15:26:20.895Z,26.92
2022-08-26T15:28:48.485Z,26.35
2022-08-26T15:31:16.018Z,26.53
2022-08-26T15:33:43.296Z,26.13
2022-08-26T15:36:10.339Z,26.55
2022-08-26T15:38:41.496Z,26.18
2022-08-26T15:41:14.785Z,25.96
2022-08-26T15:43:42.168Z,26.13
2022-08-26T15:46:13.247Z,26.16
2022-08-26T15:48:41.104Z,25.74
2022-08-26T15:51:18.589Z,25.74
2022-08-26T15:53:45.815Z,25.40
2022-08-26T15:56:13.359Z,25.10
2022-08-26T15:58:40.519Z,24.79
2022-08-26T16:01:08.651Z,24.86
2022-08-26T16:03:36.553Z,24.74
2022-08-26T16:06:03.971Z,24.48
2022-08-26T16:08:30.971Z,24.44
2022-08-26T16:11:04.724Z,24.51
2022-08-26T16:13:39.855Z,24.47
2022-08-26T16:16:08.440Z,24.34
2022-08-26T16:18:36.028Z,24.21
2022-08-26T16:21:13.264Z,24.08
2022-08-26T16:23:44.302Z,24.05
2022-08-26T16:26:15.467Z,24.06
2022-08-26T16:28:43.757Z,23.85
2022-08-26T16:31:11.251Z,23.79
2022-08-26T16:33:38.721Z,23.81
2022-08-26T16:36:06.489Z,23.75
2022-08-26T16:38:34.767Z,23.75
2022-08-26T16:41:02.691Z,23.82
2022-08-26T16:43:29.609Z,23.66
2022-08-26T16:45:56.941Z,23.64
2022-08-26T16:48:24.086Z,23.58
2022-08-26T16:50:51.713Z,23.59
2022-08-26T16:53:19.205Z,23.57
2022-08-26T16:55:47.799Z,23.55
2022-08-26T16:58:15.466Z,23.52
2022-08-26T17:00:42.656Z,23.52
2022-08-26T17:03:10.327Z,23.42
2022-08-26T17:05:38.013Z,23.54
2022-08-26T17:08:05.871Z,23.52
2022-08-26T17:10:33.241Z,23.47
2022-08-26T17:13:00.987Z,23.52
2022-08-26T17:15:28.692Z,23.37
2022-08-26T17:17:56.915Z,23.30
2022-08-26T17:20:25.694Z,23.34
2022-08-26T17:22:55.182Z,23.22
2022-08-26T17:25:26.453Z,23.09
2022-08-26T17:27:53.996Z,23.05
2022-08-26T17:30:22.727Z,22.98
2022-08-26T17:32:50.906Z,22.99
2022-08-26T17:35:19.488Z,22.97
2022-08-26T17:37:47.160Z,22.91
2022-08-26T17:40:18.432Z,22.87
2022-08-26T17:42:45.851Z,22.93
2022-08-26T17:45:13.446Z,22.82
2022-08-26T17:47:41.442Z,22.83
2022-08-26T17:50:12.456Z,22.72
2022-08-26T17:52:41.240Z,22.63
2022-08-26T17:55:13.904Z,22.61
2022-08-26T17:57:44.199Z,22.57
2022-08-26T18:00:23.390Z,22.57
2022-08-26T18:02:50.438Z,22.58
2022-08-26T18:05:18.239Z,22.51
2022-08-26T18:07:45.591Z,22.37
2022-08-26T18:10:16.203Z,22.44
2022-08-26T18:12:43.260Z,22.42
2022-08-26T18:15:11.907Z,22.36
2022-08-26T18:17:39.992Z,22.39
2022-08-26T18:20:12.894Z,22.33
2022-08-26T18:22:40.406Z,22.26
2022-08-26T18:25:08.590Z,22.20
2022-08-26T18:27:36.643Z,22.19
2022-08-26T18:30:13.478Z,22.17
2022-08-26T18:32:42.853Z,22.13
2022-08-26T18:35:10.549Z,22.14
2022-08-26T18:37:37.726Z,22.07
2022-08-26T18:40:07.413Z,22.05
2022-08-26T18:42:34.390Z,21.94
2022-08-26T18:45:01.302Z,21.98
2022-08-26T18:47:28.535Z,21.93
2022-08-26T18:49:55.518Z,21.89
2022-08-26T18:52:22.780Z,21.89
2022-08-26T18:54:51.025Z,21.80
2022-08-26T18:57:17.859Z,21.75
2022-08-26T18:59:45.151Z,21.76
2022-08-26T19:02:12.399Z,21.73
2022-08-26T19:04:39.640Z,21.74
2022-08-26T19:07:07.612Z,21.73
2022-08-26T19:09:36.038Z,21.71
2022-08-26T19:12:04.267Z,21.58
2022-08-26T19:14:32.700Z,21.60
2022-08-26T19:17:00.709Z,21.66
2022-08-26T19:19:27.678Z,21.63
2022-08-26T19:21:54.903Z,21.54
2022-08-26T19:24:21.904Z,21.51
2022-08-26T19:26:57.582Z,21.49
2022-08-26T19:29:29.509Z,21.48
2022-08-26T19:31:56.936Z,21.52
2022-08-26T19:34:25.144Z,21.51
2022-08-26T19:36:53.384Z,21.54
2022-08-26T19:39:21.467Z,21.41
2022-08-26T19:41:49.152Z,21.38
2022-08-26T19:44:38.115Z,21.39
2022-08-26T19:47:07.442Z,21.41
2022-08-26T19:49:35.001Z,21.39
2022-08-26T19:52:05.812Z,21.41
2022-08-26T19:54:33.391Z,21.38
2022-08-26T19:57:00.615Z,21.31
2022-08-26T19:59:27.673Z,21.27
2022-08-26T20:02:01.039Z,21.23
2022-08-26T20:04:28.636Z,21.34
2022-08-26T20:06:57.584Z,21.39
2022-08-26T20:09:28.629Z,21.34
2022-08-26T20:12:02.972Z,21.26
2022-08-26T20:14:30.217Z,21.33
2022-08-26T20:16:57.366Z,21.12
2022-08-26T20:19:42.857Z,21.10
2022-08-26T20:22:10.577Z,21.05
2022-08-26T20:24:37.988Z,21.06
2022-08-26T20:27:09.295Z,20.98
2022-08-26T20:29:36.977Z,21.02
2022-08-26T20:32:06.163Z,20.99
2022-08-26T20:34:34.872Z,21.04
2022-08-26T20:37:02.927Z,20.96
2022-08-26T20:39:30.039Z,20.94
2022-08-26T20:41:58.307Z,20.94
2022-08-26T20:44:27.067Z,20.85
2022-08-26T20:46:53.960Z,20.84
2022-08-26T20:49:21.378Z,20.82
2022-08-26T20:51:52.538Z,20.78
2022-08-26T20:54:26.198Z,20.77
2022-08-26T20:56:56.658Z,20.75
2022-08-26T20:59:24.589Z,20.75
2022-08-26T21:01:51.665Z,20.68
2022-08-26T21:04:22.841Z,20.74
2022-08-26T21:06:52.822Z,20.64
2022-08-26T21:09:24.454Z,20.61
2022-08-26T21:11:55.392Z,20.64
2022-08-26T21:14:25.732Z,20.56
2022-08-26T21:16:53.714Z,20.62
2022-08-26T21:19:20.719Z,20.50
2022-08-26T21:21:49.568Z,20.56
2022-08-26T21:24:16.838Z,20.54
2022-08-26T21:26:44.063Z,20.47
2022-08-26T21:29:11.012Z,20.41
2022-08-26T21:31:44.885Z,20.43
2022-08-26T21:34:13.919Z,20.38
2022-08-26T21:36:40.811Z,20.39
2022-08-26T21:39:11.491Z,20.41
2022-08-26T21:41:39.766Z,20.28
2022-08-26T21:44:06.842Z,20.32
2022-08-26T21:46:37.496Z,20.23
2022-08-26T21:49:08.443Z,20.23
2022-08-26T21:51:38.758Z,20.25
2022-08-26T21:54:10.811Z,20.13
2022-08-26T21:56:41.073Z,20.13
2022-08-26T21:59:08.910Z,20.15
2022-08-26T22:01:38.754Z,20.18
2022-08-26T22:04:07.655Z,20.26
2022-08-26T22:06:42.314Z,20.14
2022-08-26T22:09:10.180Z,20.16
2022-08-26T22:11:40.946Z,20.16
2022-08-26T22:14:08.269Z,20.02
2022-08-26T22:16:35.188Z,20.16
2022-08-26T22:19:02.234Z,20.11
2022-08-26T22:21:29.347Z,20.04
2022-08-26T22:23:58.635Z,19.96
2022-08-26T22:26:28.895Z,19.92
2022-08-26T22:28:58.713Z,19.95
2022-08-26T22:31:37.049Z,20.05
2022-08-26T22:34:12.849Z,20.07
2022-08-26T22:36:43.932Z,19.90
2022-08-26T22:39:13.528Z,19.85
2022-08-26T22:41:43.169Z,19.92
2022-08-26T22:44:11.975Z,19.81
2022-08-26T22:46:40.365Z,20.01
2022-08-26T22:49:08.991Z,19.99
2022-08-26T22:51:35.996Z,20.02
2022-08-26T22:54:02.873Z,20.07
2022-08-26T22:56:30.132Z,20.00
2022-08-26T22:58:57.017Z,20.11
2022-08-26T23:01:24.113Z,20.03
2022-08-26T23:03:51.065Z,20.02
2022-08-26T23:06:18.010Z,20.11
2022-08-26T23:08:46.515Z,20.07
2022-08-26T23:11:15.161Z,20.10
2022-08-26T23:13:42.545Z,20.12
2022-08-26T23:16:12.590Z,20.07
2022-08-26T23:18:41.264Z,19.99
2022-08-26T23:21:09.240Z,19.98
2022-08-26T23:23:39.075Z,20.08
2022-08-26T23:26:08.441Z,19.95
2022-08-26T23:28:36.896Z,19.97
2022-08-26T23:31:04.310Z,19.91
2022-08-26T23:33:51.264Z,20.06
2022-08-26T23:36:23.011Z,20.12
2022-08-26T23:38:54.182Z,20.13
2022-08-26T23:41:24.610Z,20.06
2022-08-26T23:43:51.781Z,20.04
2022-08-26T23:46:19.301Z,20.08
2022-08-26T23:48:46.587Z,20.08
2022-08-26T23:51:32.005Z,20.08
2022-08-26T23:53:58.906Z,20.05
2022-08-26T23:56:26.723Z,20.02
2022-08-26T23:58:56.847Z,20.08
